Time;durP1;ratioP1;P1;durP2;ratioP2;P2;SDS_P1;SDS_P2;PMS_P1;PMS_P2;Temp;Humidity;BMP_temperature;BMP_pressure;BME280_temperature;BME280_humidity;BME280_pressure;Samples;Min_cycle;Max_cycle;Signal;HPM_P1;HPM_P2
2022/05/20 00:01:10;;;;;;;36.78;9.70;;;;;;;29.27;42.76;97269.47;4911289;29;20044;-64
2022/05/20 00:03:59;;;;;;;25.75;7.53;;;;;;;29.21;43.72;97277.41;4909160;29;20087;-63
2022/05/20 00:06:41;;;;;;;30.83;6.28;;;;;;;29.17;43.46;97292.06;4908908;29;20123;-63
2022/05/20 00:09:30;;;;;;;22.95;6.50;;;;;;;29.13;45.15;97302.28;4911016;29;20130;-64
2022/05/20 00:12:15;;;;;;;33.80;8.85;;;;;;;29.10;45.06;97307.97;4911818;28;20131;-64
2022/05/20 00:15:15;;;;;;;24.02;8.60;;;;;;;29.07;44.25;97287.13;4913013;29;20044;-64
2022/05/20 00:17:51;;;;;;;27.10;9.57;;;;;;;29.05;42.93;97281.22;4912340;29;20044;-64
2022/05/20 00:20:40;;;;;;;28.85;9.23;;;;;;;29.01;43.37;97289.75;4911471;29;20052;-64
2022/05/20 00:23:29;;;;;;;30.98;9.38;;;;;;;28.97;44.34;97297.28;4911728;29;20138;-64
2022/05/20 00:26:11;;;;;;;22.90;7.28;;;;;;;28.92;44.39;97297.88;4903934;29;20071;-64
2022/05/20 00:29:01;;;;;;;23.92;7.55;;;;;;;28.92;44.37;97305.00;4891403;29;20063;-64
2022/05/20 00:31:43;;;;;;;20.55;7.45;;;;;;;28.97;42.92;97307.91;4882939;29;20060;-65
2022/05/20 00:34:32;;;;;;;34.95;9.57;;;;;;;29.00;44.00;97301.38;4886209;29;20078;-64
2022/05/20 00:37:14;;;;;;;26.55;7.13;;;;;;;29.01;45.92;97301.19;4886236;29;20615;-64
2022/05/20 00:40:11;;;;;;;24.20;8.55;;;;;;;29.02;45.11;97305.47;4870039;29;20053;-64
2022/05/20 00:42:49;;;;;;;20.55;7.82;;;;;;;29.00;44.51;97307.50;4875090;29;20048;-64
2022/05/20 00:45:37;;;;;;;24.55;8.15;;;;;;;28.99;44.08;97313.81;4876161;29;20056;-64
2022/05/20 00:48:20;;;;;;;22.48;9.15;;;;;;;29.03;44.52;97322.22;4888004;29;20053;-64
2022/05/20 00:51:18;;;;;;;18.73;8.57;;;;;;;29.02;44.86;97324.03;4872255;29;20057;-64
2022/05/20 00:54:04;;;;;;;31.25;9.60;;;;;;;29.00;42.26;97326.06;4881772;29;20056;-64
2022/05/20 00:57:04;;;;;;;20.13;9.10;;;;;;;29.06;44.36;97322.63;4872626;29;20120;-65
2022/05/20 00:59:53;;;;;;;25.33;8.65;;;;;;;29.06;41.71;97327.91;4880054;29;20053;-64
2022/05/20 01:02:49;;;;;;;27.10;10.60;;;;;;;29.12;45.31;97323.69;4886439;29;20085;-64
2022/05/20 01:05:34;;;;;;;29.60;10.15;;;;;;;29.07;46.36;97318.94;4879999;29;20064;-64
2022/05/20 01:08:29;;;;;;;24.48;9.13;;;;;;;29.12;46.45;97311.25;4869669;29;20643;-64
2022/05/20 01:11:11;;;;;;;21.63;8.80;;;;;;;29.14;47.49;97308.38;4865122;29;20049;-64
2022/05/20 01:14:06;;;;;;;27.73;9.43;;;;;;;29.13;47.63;97306.75;4864633;29;20048;-64
2022/05/20 01:16:41;;;;;;;27.73;10.50;;;;;;;29.14;43.70;97308.38;4868572;29;20063;-64
2022/05/20 01:19:54;;;;;;;29.90;10.05;;;;;;;29.16;48.98;97301.88;4880473;29;20147;-64
2022/05/20 01:23:17;;;;;;;31.42;9.98;;;;;;;28.98;51.80;97301.56;4869078;29;20046;-64
2022/05/20 01:25:55;;;;;;;29.38;9.20;;;;;;;29.11;57.33;97292.88;4864811;29;20057;-64
2022/05/20 01:28:44;;;;;;;25.13;9.63;;;;;;;29.15;53.91;97275.53;4865489;29;20081;-64
2022/05/20 01:31:26;;;;;;;28.27;10.52;;;;;;;29.17;60.21;97273.50;4862911;29;20067;-64
2022/05/20 01:34:15;;;;;;;31.50;10.45;;;;;;;29.22;49.09;97274.53;4867397;29;20067;-64
2022/05/20 01:36:57;;;;;;;24.67;10.85;;;;;;;29.27;57.63;97272.13;4869338;29;20738;-64
2022/05/20 01:39:52;;;;;;;24.83;10.40;;;;;;;29.30;56.78;97271.72;4896050;29;20084;-64
2022/05/20 01:42:34;;;;;;;22.73;11.65;;;;;;;29.30;52.85;97286.81;4899017;29;20052;-64
2022/05/20 01:45:41;;;;;;;25.83;12.15;;;;;;;29.43;55.33;97288.75;4893287;29;20088;-64
2022/05/20 01:48:34;;;;;;;29.42;14.50;;;;;;;29.49;53.42;97294.06;4888090;29;20057;-64
2022/05/20 01:51:30;;;;;;;42.78;13.80;;;;;;;29.72;51.82;97285.75;4883306;29;20159;-64
2022/05/20 01:54:19;;;;;;;38.53;15.32;;;;;;;29.94;59.58;97279.28;4901018;29;20048;-64
2022/05/20 01:57:20;;;;;;;41.83;15.90;;;;;;;30.16;55.16;97277.28;4905497;29;20044;-65
2022/05/20 02:00:14;;;;;;;40.97;17.98;;;;;;;30.33;56.62;97261.75;4899486;29;20059;-64
2022/05/20 02:03:11;;;;;;;43.88;20.05;;;;;;;30.55;54.11;97265.00;4899616;28;20056;-65
2022/05/20 02:06:06;;;;;;;42.88;19.20;;;;;;;30.77;56.38;97263.72;4902354;29;20044;-64
2022/05/20 02:08:58;;;;;;;50.33;19.98;;;;;;;31.01;53.06;97271.03;4900938;29;20128;-65
2022/05/20 02:11:57;;;;;;;84.13;21.65;;;;;;;31.27;53.74;97270.16;4885950;29;20668;-64
2022/05/20 02:14:46;;;;;;;67.57;27.70;;;;;;;31.39;40.50;97273.78;4883759;29;20061;-64
2022/05/20 02:17:44;;;;;;;76.07;25.55;;;;;;;31.87;45.48;97268.00;4881265;29;20160;-65
2022/05/20 02:20:41;;;;;;;62.17;26.80;;;;;;;32.17;45.86;97276.22;4882344;29;20736;-64
2022/05/20 02:23:32;;;;;;;53.00;25.92;;;;;;;32.46;48.86;97274.75;4885608;29;20071;-63
2022/05/20 02:26:26;;;;;;;68.00;26.45;;;;;;;32.65;42.03;97273.72;4900494;29;20454;-64
2022/05/20 02:29:20;;;;;;;55.75;24.58;;;;;;;32.87;49.50;97287.50;4896403;29;20055;-65
2022/05/20 02:32:11;;;;;;;50.50;23.00;;;;;;;32.98;44.10;97279.56;4909819;29;20044;-63
2022/05/20 02:35:00;;;;;;;53.55;23.88;;;;;;;33.26;42.23;97270.25;4904792;29;20055;-63
2022/05/20 02:37:49;;;;;;;53.88;23.83;;;;;;;33.42;37.93;97273.13;4901440;29;20383;-65
2022/05/20 02:40:43;;;;;;;54.53;24.88;;;;;;;33.60;42.56;97285.63;4900430;29;20078;-64
2022/05/20 02:43:26;;;;;;;65.30;27.65;;;;;;;33.77;40.39;97291.97;4894464;29;20127;-65
2022/05/20 02:46:15;;;;;;;67.68;28.65;;;;;;;33.71;41.77;97300.88;4890371;29;20116;-63
2022/05/20 02:48:57;;;;;;;62.13;28.17;;;;;;;33.67;41.05;97315.75;4888163;29;20140;-63
2022/05/20 02:51:47;;;;;;;54.70;24.92;;;;;;;33.78;42.06;97315.00;4890829;29;20100;-63
2022/05/20 02:54:29;;;;;;;38.22;20.48;;;;;;;33.92;41.34;97318.31;4890884;29;20044;-63
2022/05/20 02:57:18;;;;;;;52.20;17.30;;;;;;;33.97;37.41;97333.66;4890460;29;20143;-63
2022/05/20 03:06:07;;;;;;;28.83;12.00;;;;;;;34.24;39.00;97316.22;4890395;29;20056;-63
2022/05/20 03:08:56;;;;;;;33.00;10.75;;;;;;;34.37;39.94;97316.00;4890674;29;20048;-63
2022/05/20 03:11:39;;;;;;;31.02;10.73;;;;;;;34.34;39.19;97318.31;4882339;29;20071;-62
2022/05/20 03:14:35;;;;;;;39.20;10.90;;;;;;;34.40;39.54;97325.44;4871246;29;20096;-63
2022/05/20 03:17:11;;;;;;;27.35;11.73;;;;;;;34.22;39.75;97328.97;4870564;29;20049;-62
2022/05/20 03:20:00;;;;;;;32.30;11.27;;;;;;;34.69;38.57;97329.06;4872060;29;20101;-63
2022/05/20 03:22:43;;;;;;;24.23;10.80;;;;;;;34.76;38.53;97324.44;4872373;29;20057;-63
2022/05/20 03:25:32;;;;;;;31.65;11.48;;;;;;;34.50;35.97;97323.00;4874430;29;20121;-63
2022/05/20 03:28:15;;;;;;;30.97;13.17;;;;;;;34.75;37.01;97320.94;4874726;29;20067;-63
2022/05/20 03:31:07;;;;;;;24.00;11.15;;;;;;;34.49;36.18;97308.78;4873882;29;20072;-63
2022/05/20 03:34:04;;;;;;;33.97;10.90;;;;;;;34.46;36.34;97319.16;4869404;29;20069;-63
2022/05/20 03:36:51;;;;;;;33.63;12.35;;;;;;;34.84;36.52;97327.56;4873106;29;20048;-66
2022/05/20 03:39:35;;;;;;;28.42;12.43;;;;;;;34.53;35.41;97320.69;4856016;29;20053;-65
2022/05/20 03:42:25;;;;;;;27.20;13.45;;;;;;;34.66;34.13;97311.59;4871648;29;20900;-65
2022/05/20 03:45:15;;;;;;;31.35;12.40;;;;;;;34.84;35.33;97308.84;4874920;29;20089;-64
2022/05/20 03:47:57;;;;;;;26.77;11.38;;;;;;;34.92;36.03;97313.03;4876016;29;20129;-65
2022/05/20 03:50:46;;;;;;;33.10;11.80;;;;;;;35.25;35.73;97297.16;4875644;29;20053;-65
2022/05/20 03:53:28;;;;;;;32.38;12.73;;;;;;;35.25;33.16;97286.44;4896582;29;20060;-65
2022/05/20 03:56:17;;;;;;;31.77;12.77;;;;;;;35.48;33.64;97285.56;4911038;29;20048;-65
2022/05/20 03:58:59;;;;;;;42.20;13.75;;;;;;;35.67;34.69;97286.19;4874487;29;20638;-65
2022/05/20 04:01:58;;;;;;;32.83;12.68;;;;;;;35.64;34.45;97294.69;4877243;29;20053;-64
2022/05/20 04:04:50;;;;;;;32.67;12.77;;;;;;;35.66;30.82;97293.41;4893756;29;20048;-64
2022/05/20 04:07:39;;;;;;;41.35;14.05;;;;;;;36.05;30.63;97291.72;4893296;29;20502;-65
2022/05/20 04:10:28;;;;;;;23.52;12.75;;;;;;;36.11;31.42;97300.66;4893451;29;20144;-66
2022/05/20 04:13:10;;;;;;;28.08;10.63;;;;;;;36.44;31.42;97302.59;4878314;29;20085;-64
2022/05/20 04:15:59;;;;;;;21.73;9.90;;;;;;;36.52;32.49;97298.69;4893735;29;20406;-64
2022/05/20 04:18:54;;;;;;;24.40;9.50;;;;;;;36.56;31.77;97289.88;4892609;29;20056;-65
2022/05/20 04:21:30;;;;;;;24.25;8.98;;;;;;;36.49;31.54;97289.22;4893390;29;20736;-65
2022/05/20 04:24:20;;;;;;;23.58;8.25;;;;;;;36.84;31.58;97280.13;4893062;29;20041;-63
2022/05/20 04:27:02;;;;;;;19.10;9.35;;;;;;;37.40;36.15;97284.34;4902999;29;20052;-65
2022/05/20 04:29:51;;;;;;;32.50;9.88;;;;;;;36.39;30.16;97284.56;4899635;29;20108;-64
2022/05/20 04:32:33;;;;;;;27.45;9.07;;;;;;;36.64;30.98;97294.84;4899509;29;20538;-64
2022/05/20 04:35:29;;;;;;;23.95;8.93;;;;;;;37.11;30.22;97289.91;4901858;29;20092;-64
2022/05/20 04:38:25;;;;;;;18.90;8.55;;;;;;;37.56;29.82;97291.53;4902358;29;20088;-64
2022/05/20 04:47:10;;;;;;;38.50;9.65;;;;;;;36.90;30.67;97276.44;4895281;29;20467;-64
2022/05/20 04:49:59;;;;;;;35.50;8.82;;;;;;;37.07;30.76;97272.63;4896484;29;20133;-64
2022/05/20 04:52:42;;;;;;;27.02;8.68;;;;;;;37.28;32.50;97278.31;4892248;29;20056;-64
2022/05/20 04:55:31;;;;;;;25.58;7.97;;;;;;;37.60;28.93;97278.44;4891946;29;20092;-64
2022/05/20 04:58:14;;;;;;;;;;;;;;;37.85;30.97;97271.41;4895216;29;20056;-63
2022/05/20 05:01:03;;;;;;;29.10;8.68;;;;;;;37.91;34.58;97265.03;4893698;29;20292;-64
2022/05/20 05:03:45;;;;;;;27.52;7.32;;;;;;;38.03;33.53;97270.22;4899096;29;20481;-64
2022/05/20 05:06:35;;;;;;;24.77;8.77;;;;;;;37.88;32.58;97267.41;4898435;29;20053;-64
2022/05/20 05:09:24;;;;;;;18.90;7.57;;;;;;;37.89;30.92;97266.34;4896459;29;20052;-64
2022/05/20 05:12:08;;;;;;;24.67;7.40;;;;;;;38.44;31.32;97255.25;4900898;29;20058;-64
2022/05/20 05:14:59;;;;;;;23.95;7.65;;;;;;;38.59;35.12;97252.69;4894495;29;20066;-64
2022/05/20 05:20:54;;;;;;;32.55;7.78;;;;;;;38.67;32.01;97259.47;4897768;29;20059;-64
2022/05/20 05:23:44;;;;;;;23.63;8.07;;;;;;;38.77;31.07;97243.38;4903047;29;20064;-63
2022/05/20 05:26:35;;;;;;;23.85;6.47;;;;;;;38.35;30.00;97243.34;4897482;29;20115;-64
2022/05/20 05:29:18;;;;;;;33.55;7.45;;;;;;;38.27;32.17;97250.00;4894702;29;20051;-64
2022/05/20 05:32:07;;;;;;;28.50;8.60;;;;;;;38.50;28.89;97253.41;4899473;29;20052;-65
2022/05/20 05:34:49;;;;;;;33.33;7.10;;;;;;;38.57;31.20;97248.63;4898402;29;20541;-64
2022/05/20 05:37:51;;;;;;;34.53;8.40;;;;;;;38.47;29.98;97241.28;4900082;29;20144;-64
2022/05/20 05:40:47;;;;;;;31.70;8.15;;;;;;;38.56;27.65;97241.59;4901736;29;20376;-64
2022/05/20 05:43:23;;;;;;;23.83;7.95;;;;;;;38.89;28.73;97241.25;4877970;29;20093;-64
2022/05/20 05:46:11;;;;;;;;;;;;;;;38.88;33.75;97234.25;4890701;29;20388;-64
2022/05/20 05:49:00;;;;;;;28.90;8.00;;;;;;;38.72;31.93;97227.16;4893705;29;19962;-65
2022/05/20 05:51:42;;;;;;;31.85;8.98;;;;;;;38.93;30.30;97230.78;4900303;29;20047;-64
2022/05/20 05:54:32;;;;;;;36.35;8.35;;;;;;;38.68;30.31;97223.38;4904056;29;20066;-64
2022/05/20 05:57:19;;;;;;;30.50;9.50;;;;;;;38.91;32.13;97222.13;4905926;29;20044;-64
2022/05/20 06:00:12;;;;;;;27.38;7.95;;;;;;;38.71;30.62;97217.47;4904519;29;20564;-64
2022/05/20 06:02:54;;;;;;;30.77;8.52;;;;;;;38.66;30.97;97225.50;4904956;29;20059;-64
2022/05/20 06:05:43;;;;;;;31.48;8.32;;;;;;;38.96;31.21;97214.91;4898915;29;20055;-64
2022/05/20 06:08:25;;;;;;;37.30;9.20;;;;;;;38.75;31.45;97207.78;4909659;29;20190;-64
2022/05/20 06:11:14;;;;;;;35.20;9.73;;;;;;;38.29;29.28;97204.00;4910112;29;20052;-64
2022/05/20 06:13:56;;;;;;;33.00;9.13;;;;;;;38.75;29.48;97199.72;4910135;29;20079;-63
2022/05/20 06:16:46;;;;;;;33.13;9.85;;;;;;;38.95;34.52;97197.13;4908188;29;20048;-63
2022/05/20 06:19:29;;;;;;;;;;;;;;;39.01;32.37;97190.69;4895455;29;20052;-62
2022/05/20 06:22:18;;;;;;;34.28;8.25;;;;;;;39.26;35.33;97186.47;4891112;29;20064;-64
2022/05/20 06:25:00;;;;;;;28.97;9.30;;;;;;;39.26;30.88;97183.75;4901290;29;20131;-64
2022/05/20 06:27:50;;;;;;;33.40;8.75;;;;;;;38.95;34.01;97170.19;4902213;29;20135;-65
2022/05/20 06:30:32;;;;;;;;;;;;;;;38.67;30.78;97167.88;4897558;29;20439;-66
2022/05/20 06:33:21;;;;;;;44.40;10.00;;;;;;;38.79;31.64;97163.13;4904467;29;19927;-65
2022/05/20 06:42:19;;;;;;;33.83;8.65;;;;;;;38.84;34.16;97146.97;4875524;29;20045;-66
2022/05/20 06:45:01;;;;;;;35.90;9.55;;;;;;;38.87;33.73;97154.53;4871597;29;20477;-65
2022/05/20 06:47:50;;;;;;;34.47;9.88;;;;;;;38.90;30.39;97151.28;4901851;29;20071;-66
2022/05/20 06:50:32;;;;;;;28.67;8.98;;;;;;;39.17;35.12;97144.94;4909231;29;20372;-65
2022/05/20 06:53:27;;;;;;;30.77;8.50;;;;;;;38.64;31.11;97147.69;4909048;29;20079;-66
2022/05/20 06:56:03;;;;;;;34.83;9.13;;;;;;;38.86;33.46;97142.13;4909302;29;20730;-65
2022/05/20 06:58:58;;;;;;;34.63;9.38;;;;;;;38.84;32.11;97133.50;4909560;29;20052;-65
2022/05/20 07:01:34;;;;;;;37.28;8.68;;;;;;;39.06;35.86;97132.50;4871487;29;20144;-66
2022/05/20 07:04:49;;;;;;;27.63;9.18;;;;;;;38.81;31.64;97131.31;4871718;29;20108;-66
2022/05/20 07:07:25;;;;;;;37.53;9.73;;;;;;;38.95;32.05;97137.06;4871652;29;20071;-66
2022/05/20 07:10:23;;;;;;;35.13;8.65;;;;;;;38.65;29.78;97121.56;4871354;29;20045;-65
2022/05/20 07:12:59;;;;;;;48.60;8.60;;;;;;;38.88;30.19;97115.72;4872028;29;20132;-65
2022/05/20 07:15:47;;;;;;;31.77;8.63;;;;;;;38.98;29.88;97117.66;4883903;29;20071;-65
2022/05/20 07:18:36;;;;;;;36.60;8.85;;;;;;;39.06;34.05;97116.31;4871502;29;20188;-65
2022/05/20 07:21:18;;;;;;;35.85;9.13;;;;;;;39.04;29.31;97109.31;4871092;29;20052;-65
2022/05/20 07:24:07;;;;;;;38.72;9.20;;;;;;;38.84;30.12;97103.03;4872110;29;20045;-64
2022/05/20 07:26:49;;;;;;;42.08;9.35;;;;;;;38.87;30.56;97100.66;4870796;29;20061;-65
2022/05/20 07:29:38;;;;;;;39.10;8.60;;;;;;;38.94;31.23;97092.34;4870783;29;20059;-65
2022/05/20 07:32:20;;;;;;;29.33;7.65;;;;;;;38.84;31.19;97095.78;4871584;29;20049;-65
2022/05/20 07:35:09;;;;;;;36.67;8.68;;;;;;;39.04;32.70;97093.16;4871552;29;20053;-64
2022/05/20 07:37:51;;;;;;;30.60;8.23;;;;;;;38.90;30.39;97081.25;4885468;29;20052;-64
2022/05/20 07:40:47;;;;;;;27.90;8.45;;;;;;;39.23;31.37;97085.38;4887543;29;20700;-65
2022/05/20 07:43:24;;;;;;;40.97;8.73;;;;;;;39.35;30.82;97087.81;4875953;29;20082;-64
2022/05/20 07:46:19;;;;;;;41.78;9.63;;;;;;;39.19;32.44;97072.72;4886138;29;20045;-64
2022/05/20 07:48:55;;;;;;;37.78;9.25;;;;;;;39.20;29.64;97075.09;4872344;29;20049;-64
2022/05/20 07:51:51;;;;;;;;;;;;;;;39.13;29.70;97066.47;4873173;29;20141;-65
2022/05/20 07:54:29;;;;;;;34.28;8.32;;;;;;;39.07;28.96;97070.25;4899366;29;20054;-64
2022/05/20 07:57:18;;;;;;;35.10;9.13;;;;;;;39.30;31.78;97060.84;4908793;29;20103;-64
2022/05/20 08:00:12;;;;;;;31.33;8.70;;;;;;;39.30;29.61;97058.13;4904431;29;20059;-64
2022/05/20 08:03:01;;;;;;;31.52;9.13;;;;;;;39.24;31.01;97053.84;4882975;29;20048;-64
2022/05/20 08:05:50;;;;;;;36.35;8.23;;;;;;;39.24;30.27;97049.25;4888082;29;20052;-64
2022/05/20 08:08:32;;;;;;;35.58;8.68;;;;;;;39.44;31.49;97051.16;4889284;29;20680;-64
2022/05/20 08:11:21;;;;;;;42.10;9.05;;;;;;;39.41;29.81;97043.63;4889607;29;20053;-63
2022/05/20 08:14:03;;;;;;;41.30;9.88;;;;;;;39.39;30.68;97045.78;4888435;29;20045;-63
2022/05/20 08:16:52;;;;;;;36.15;8.30;;;;;;;39.35;31.63;97040.06;4872538;29;20151;-64
2022/05/20 08:19:41;;;;;;;26.00;7.85;;;;;;;39.28;31.43;97027.94;4889392;29;20434;-63
2022/05/20 08:22:30;;;;;;;36.67;8.70;;;;;;;39.26;29.27;97030.13;4888982;29;20044;-63
2022/05/20 08:25:12;;;;;;;36.92;9.23;;;;;;;39.23;31.32;97025.25;4889714;29;20060;-63
2022/05/20 08:28:01;;;;;;;38.10;8.45;;;;;;;39.01;33.05;97020.13;4898373;29;20055;-63
2022/05/20 08:30:43;;;;;;;33.58;8.27;;;;;;;38.94;33.42;97020.41;4900894;29;20132;-63
2022/05/20 08:33:32;;;;;;;49.10;11.25;;;;;;;38.88;33.47;97013.34;4897168;29;20055;-64
2022/05/20 08:36:14;;;;;;;39.22;9.30;;;;;;;38.95;33.58;97010.44;4911685;29;20130;-63
2022/05/20 08:39:12;;;;;;;35.58;10.82;;;;;;;38.95;33.89;97008.53;4912596;28;20163;-63
2022/05/20 08:42:04;;;;;;;52.15;11.43;;;;;;;39.04;30.96;97001.53;4895159;29;20163;-63
2022/05/20 08:44:54;;;;;;;36.28;8.82;;;;;;;38.98;30.83;96999.09;4893682;29;20048;-63
2022/05/20 08:47:43;;;;;;;;;;;;;;;39.03;33.67;96989.13;4891997;29;20052;-64
2022/05/20 08:50:37;;;;;;;49.17;9.55;;;;;;;38.95;34.64;96986.97;4904396;29;19927;-64
2022/05/20 08:53:35;;;;;;;40.95;10.32;;;;;;;38.81;34.33;96980.47;4874349;29;20069;-63
2022/05/20 08:56:30;;;;;;;59.95;11.07;;;;;;;38.89;32.21;96977.25;4874151;29;20093;-62
2022/05/20 08:59:16;;;;;;;48.15;10.63;;;;;;;39.07;31.63;96970.56;4874905;29;20045;-64
2022/05/20 09:02:05;;;;;;;43.65;9.75;;;;;;;39.05;31.47;96970.00;4892893;29;20081;-64
2022/05/20 09:04:55;;;;;;;44.60;9.93;;;;;;;38.91;31.43;96963.50;4893482;29;20063;-64
2022/05/20 09:08:03;;;;;;;62.20;10.68;;;;;;;38.87;30.80;96963.25;4891927;29;20056;-63
2022/05/20 09:11:06;;;;;;;62.53;10.68;;;;;;;38.82;30.44;96948.97;4893244;29;20072;-63
2022/05/20 09:16:58;;;;;;;40.45;9.30;;;;;;;38.58;34.61;96937.91;4893656;29;20068;-63
2022/05/20 09:20:14;;;;;;;39.05;8.75;;;;;;;38.55;35.07;96925.00;4893377;29;20097;-63
2022/05/20 09:23:07;;;;;;;55.50;24.73;;;;;;;38.46;34.08;96926.56;4891487;29;20063;-64
2022/05/20 09:26:12;;;;;;;45.22;20.33;;;;;;;38.42;35.15;96934.34;4890017;29;20422;-64
2022/05/20 09:29:07;;;;;;;42.90;13.57;;;;;;;38.24;35.40;96922.19;4891155;29;20052;-63
2022/05/20 09:32:43;;;;;;;49.25;9.57;;;;;;;38.27;34.25;96913.59;4891674;29;20148;-64
2022/05/20 09:35:34;;;;;;;48.88;8.73;;;;;;;38.23;31.63;96914.41;4892423;29;20634;-64
2022/05/20 09:38:52;;;;;;;34.17;8.73;;;;;;;38.07;36.92;96908.19;4888559;29;20056;-64
2022/05/20 09:41:45;;;;;;;42.28;9.77;;;;;;;38.02;33.99;96913.50;4867087;29;20128;-64
2022/05/20 09:44:47;;;;;;;32.88;9.23;;;;;;;37.79;36.79;96897.81;4862695;29;20427;-64
2022/05/20 09:47:53;;;;;;;44.38;10.73;;;;;;;37.72;35.96;96897.25;4864370;29;20557;-64
2022/05/20 09:50:44;;;;;;;52.15;10.90;;;;;;;37.80;35.22;96900.25;4866095;29;20115;-64
2022/05/20 09:53:39;;;;;;;46.78;9.52;;;;;;;37.89;36.31;96897.84;4876534;29;20056;-64
2022/05/20 09:56:47;;;;;;;49.72;10.60;;;;;;;38.22;31.21;96892.06;4876228;29;20056;-65
2022/05/20 09:59:44;;;;;;;45.40;9.82;;;;;;;38.06;35.71;96890.41;4881393;29;20064;-64
2022/05/20 10:03:05;;;;;;;53.75;11.43;;;;;;;38.11;34.36;96895.78;4880638;29;20370;-64
2022/05/20 10:06:26;;;;;;;44.47;11.73;;;;;;;38.34;32.49;96899.06;4869464;29;20056;-64
2022/05/20 10:09:21;;;;;;;28.65;9.80;;;;;;;38.18;34.24;96890.97;4880530;29;20061;-65
2022/05/20 10:12:09;;;;;;;48.05;10.68;;;;;;;38.33;32.87;96894.75;4882782;29;20052;-65
2022/05/20 10:15:01;;;;;;;44.95;12.20;;;;;;;38.23;33.62;96888.31;4879165;29;20049;-64
2022/05/20 10:18:00;;;;;;;51.03;12.35;;;;;;;38.44;31.78;96891.81;4891186;29;20438;-64
2022/05/20 10:21:42;;;;;;;54.53;14.80;;;;;;;38.47;31.50;96896.69;4891644;29;20112;-64
2022/05/20 10:24:42;;;;;;;49.67;13.43;;;;;;;38.50;31.23;96888.09;4851011;29;20209;-65
2022/05/20 10:27:40;;;;;;;44.92;12.60;;;;;;;38.48;33.94;96884.00;4851759;29;20136;-65
2022/05/20 10:34:00;;;;;;;49.17;14.35;;;;;;;38.39;31.86;96877.56;4871705;29;20056;-65
2022/05/20 10:36:45;;;;;;;44.38;12.80;;;;;;;38.34;33.27;96872.16;4872800;29;20056;-65
2022/05/20 10:40:02;;;;;;;46.80;14.93;;;;;;;38.01;34.88;96871.53;4880440;29;20049;-65
2022/05/20 10:43:12;;;;;;;48.83;13.88;;;;;;;38.31;30.80;96873.53;4890765;29;20055;-65
2022/05/20 10:49:55;;;;;;;49.95;13.70;;;;;;;38.24;30.59;96873.75;4872137;29;20053;-65
2022/05/20 10:53:05;;;;;;;62.90;14.88;;;;;;;38.13;33.54;96871.31;4872056;29;20057;-64
2022/05/20 10:56:24;;;;;;;40.08;12.70;;;;;;;38.06;31.92;96865.41;4905971;29;20040;-64
2022/05/20 10:59:21;;;;;;;55.92;15.55;;;;;;;38.14;28.83;96865.69;4908292;29;20545;-64
2022/05/20 11:02:22;;;;;;;57.25;14.15;;;;;;;37.90;32.75;96867.22;4908731;29;20131;-63
2022/05/20 11:05:12;;;;;;;42.25;11.13;;;;;;;37.79;31.54;96860.16;4891439;29;20108;-64
2022/05/20 11:08:18;;;;;;;39.47;11.63;;;;;;;37.81;31.71;96863.41;4889965;29;20048;-65
2022/05/20 11:11:16;;;;;;;49.53;12.13;;;;;;;37.69;31.64;96865.50;4888491;29;20049;-64
2022/05/20 11:14:13;;;;;;;43.72;11.15;;;;;;;37.69;31.49;96865.50;4897502;29;20080;-64
2022/05/20 11:17:04;;;;;;;48.58;11.73;;;;;;;37.67;31.07;96857.72;4909531;29;20044;-63
2022/05/20 11:20:14;;;;;;;44.85;11.63;;;;;;;37.72;31.56;96867.66;4908689;29;20146;-63
2022/05/20 11:23:05;;;;;;;38.00;11.32;;;;;;;37.67;32.70;96863.09;4871795;29;20049;-64
2022/05/20 11:26:13;;;;;;;36.30;12.50;;;;;;;37.50;34.61;96862.47;4874082;29;20053;-64
2022/05/20 11:29:32;;;;;;;37.85;11.63;;;;;;;37.41;34.40;96854.09;4869604;29;20506;-63
2022/05/20 11:32:47;;;;;;;48.10;12.82;;;;;;;37.56;33.86;96861.41;4863685;29;20425;-64
2022/05/20 11:35:40;;;;;;;48.97;12.77;;;;;;;37.30;35.39;96854.28;4870445;29;20145;-64
2022/05/20 11:38:38;;;;;;;43.65;10.98;;;;;;;37.33;33.35;96845.72;4871247;29;20049;-64
2022/05/20 11:41:33;;;;;;;42.83;10.23;;;;;;;37.16;33.51;96846.69;4871296;29;20065;-64
2022/05/20 11:44:28;;;;;;;37.97;8.93;;;;;;;37.23;32.44;96849.16;4871011;29;20128;-64
2022/05/20 11:47:38;;;;;;;35.17;10.88;;;;;;;37.08;36.45;96849.84;4871112;29;20053;-64
2022/05/20 11:50:40;;;;;;;56.03;9.50;;;;;;;37.30;32.44;96854.28;4870023;29;20056;-64
2022/05/20 11:53:27;;;;;;;36.08;9.25;;;;;;;37.45;31.57;96860.53;4870840;29;20390;-65
2022/05/20 11:56:33;;;;;;;41.78;9.60;;;;;;;37.34;30.40;96858.88;4871167;29;20053;-64
2022/05/20 11:59:45;;;;;;;50.13;8.60;;;;;;;37.57;29.02;96865.72;4886911;29;20152;-65
2022/05/20 12:02:46;;;;;;;41.83;8.32;;;;;;;37.55;30.49;96860.59;4890843;29;20057;-64
2022/05/20 12:05:32;;;;;;;33.97;7.47;;;;;;;37.46;31.23;96864.03;4892913;29;20806;-65
2022/05/20 12:08:45;;;;;;;39.97;7.60;;;;;;;37.43;31.67;96861.88;4893309;29;20052;-64
2022/05/20 12:11:40;;;;;;;33.45;7.47;;;;;;;37.35;29.08;96870.44;4892998;29;20057;-63
2022/05/20 12:14:30;;;;;;;41.55;8.82;;;;;;;37.27;30.94;96861.00;4893336;29;20056;-63
2022/05/20 12:17:12;;;;;;;;;;;;;;;37.14;32.37;96858.75;4890090;29;20107;-63
2022/05/20 12:27:00;;;;;;;31.88;8.32;;;;;;;37.12;29.94;96861.66;4884357;29;20111;-63
2022/05/20 12:30:18;;;;;;;40.72;8.63;;;;;;;37.15;28.35;96860.38;4892498;29;20053;-63
2022/05/20 12:33:30;;;;;;;30.45;7.15;;;;;;;37.19;29.26;96866.88;4891823;29;20140;-63
2022/05/20 12:36:32;;;;;;;35.83;7.30;;;;;;;37.15;28.06;96865.75;4892373;29;20048;-64
2022/05/20 12:39:46;;;;;;;35.35;8.05;;;;;;;37.29;26.50;96872.28;4892553;29;20044;-63
2022/05/20 12:43:04;;;;;;;27.73;7.77;;;;;;;37.18;27.87;96870.63;4892782;29;20049;-64
2022/05/20 12:45:46;;;;;;;34.35;6.75;;;;;;;37.09;28.39;96875.63;4892425;29;20290;-64
2022/05/20 12:48:35;;;;;;;37.00;8.52;;;;;;;36.97;28.36;96864.25;4892477;29;20057;-64
2022/05/20 12:51:21;;;;;;;41.13;7.47;;;;;;;37.04;28.16;96864.03;4901942;29;20056;-64
2022/05/20 12:54:25;;;;;;;37.80;6.85;;;;;;;36.89;30.83;96882.72;4904608;29;20068;-64
2022/05/20 12:57:32;;;;;;;34.17;8.30;;;;;;;36.67;30.55;96878.28;4876732;29;20048;-65
2022/05/20 13:00:45;;;;;;;;;;;;;;;36.54;29.96;96872.50;4884403;29;20484;-65
2022/05/20 13:03:32;;;;;;;36.83;7.13;;;;;;;36.37;31.05;96886.84;4884993;29;20463;-65
2022/05/20 13:06:32;;;;;;;41.67;7.45;;;;;;;36.27;30.05;96880.56;4901178;29;20055;-64
2022/05/20 13:09:09;;;;;;;43.30;6.80;;;;;;;36.17;30.42;96880.44;4889824;29;20049;-64
2022/05/20 13:12:08;;;;;;;42.72;7.05;;;;;;;36.09;29.29;96881.69;4890211;29;20056;-64
2022/05/20 13:15:09;;;;;;;40.05;7.63;;;;;;;36.08;30.00;96876.59;4892479;29;20052;-66
2022/05/20 13:18:03;;;;;;;41.05;7.15;;;;;;;35.98;30.68;96871.94;4909009;29;20048;-64
2022/05/20 13:20:54;;;;;;;34.17;7.45;;;;;;;35.80;30.38;96874.94;4909152;29;20055;-64
2022/05/20 13:23:40;;;;;;;33.58;8.05;;;;;;;35.69;29.64;96873.97;4881438;29;20063;-64
2022/05/20 13:26:41;;;;;;;32.05;6.45;;;;;;;35.55;31.67;96876.22;4882830;29;20123;-66
2022/05/20 13:29:23;;;;;;;24.50;5.90;;;;;;;35.42;30.75;96875.78;4876757;29;20101;-65
2022/05/20 13:32:28;;;;;;;31.77;5.68;;;;;;;35.34;29.67;96881.56;4885576;29;20108;-65
2022/05/20 13:35:13;;;;;;;29.73;5.90;;;;;;;35.22;30.71;96890.50;4881447;29;20060;-65
2022/05/20 13:38:03;;;;;;;35.67;7.03;;;;;;;35.11;31.04;96894.09;4881983;29;20048;-65
2022/05/20 13:40:52;;;;;;;30.17;6.65;;;;;;;35.06;29.60;96902.03;4874104;29;20041;-65
2022/05/20 13:43:48;;;;;;;31.15;7.70;;;;;;;35.00;30.60;96903.00;4895703;29;20056;-66
2022/05/20 13:49:37;;;;;;;34.40;6.57;;;;;;;34.81;29.58;96898.94;4889096;29;20076;-65
2022/05/20 13:52:21;;;;;;;26.90;6.53;;;;;;;34.75;29.57;96897.25;4888809;28;20127;-65
2022/05/20 13:55:14;;;;;;;27.00;6.85;;;;;;;34.81;29.31;96894.41;4885654;29;20067;-66
2022/05/20 13:57:57;;;;;;;33.50;6.05;;;;;;;34.78;29.05;96896.78;4885950;29;20103;-65
2022/05/20 14:00:46;;;;;;;44.92;8.65;;;;;;;34.70;29.60;96906.00;4887525;29;20489;-64